CheckWX is a tool to help pilots better visualize weather data.  It is not intended as a substitute for an official pre-flight weather briefing.

01:36:36 UTC

EHEH TAF
Eindhoven Airport
Eindhoven, The Netherlands
TAF EHEH 192243Z 2000/2106 23009KT CAVOK PROB30 TEMPO 2011/2017 28012G22KT -SHRA SCT030CB BECMG 2017/2020 27003KT BECMG 2023/2101 21003KT

Aug-20@
00:00 UTC

Aug-20 @ 00:00 UTC

Aug-20@
17:00 UTC

Aug-20 @ 17:00 UTC

TAF EHEH 192243Z 2000/2106 23009KT CAVOK
Wind
  • 230° at 9 KTS
Conditions
No significant weather
Cloud Levels
  • No significant clouds

Aug-20@
11:00 UTC

Aug-20 @ 11:00 UTC

Aug-20@
17:00 UTC

Aug-20 @ 17:00 UTC

PROB30 TEMPO 2011/2017 28012G22KT -SHRA SCT030CB

Temporary - 30% Likelihood

Temporary - 30% Likelihood during this time.

Wind
  • 280° at 12 KTS
  • {Gusting to 22 KTS
Conditions
Light Rain
Cloud Levels
  • Scattered at 3,000' AGL

Aug-20@
17:00 UTC

Aug-20 @ 17:00 UTC

Aug-20@
23:00 UTC

Aug-20 @ 23:00 UTC

BECMG 2017/2020 27003KT

Becoming

Becoming Conditions expected by Tue, Aug 20, 2019 @ 20:00 UTC

Wind
  • 270° at 3 KTS
Conditions
No significant weather
Cloud Levels
  • No significant clouds

Aug-20@
23:00 UTC

Aug-20 @ 23:00 UTC

Aug-21@
06:00 UTC

Aug-21 @ 06:00 UTC

BECMG 2023/2101 21003KT

Becoming

Becoming Conditions expected by Wed, Aug 21, 2019 @ 01:00 UTC

Wind
  • 210° at 3 KTS
Conditions
No significant weather
Cloud Levels
  • No significant clouds